createdAt,value
2023-05-10T00:00:56.532Z,53.82
2023-05-10T00:03:48.672Z,53.98
2023-05-10T00:06:40.761Z,54.16
2023-05-10T00:09:32.710Z,54.30
2023-05-10T00:12:24.691Z,54.30
2023-05-10T00:15:16.703Z,54.56
2023-05-10T00:18:08.872Z,54.85
2023-05-10T00:21:00.874Z,54.89
2023-05-10T00:23:52.817Z,55.04
2023-05-10T00:26:44.823Z,55.16
2023-05-10T00:29:36.818Z,55.38
2023-05-10T00:32:28.854Z,55.45
2023-05-10T00:35:21.013Z,55.55
2023-05-10T00:38:12.933Z,55.75
2023-05-10T00:41:05.118Z,55.91
2023-05-10T00:43:57.088Z,56.01
2023-05-10T00:46:49.933Z,56.08
2023-05-10T00:49:42.655Z,56.20
2023-05-10T00:52:34.763Z,56.47
2023-05-10T00:55:26.985Z,56.43
2023-05-10T00:58:03.924Z,56.58
2023-05-10T01:00:57.147Z,56.65
2023-05-10T01:03:49.198Z,56.83
2023-05-10T01:06:41.428Z,56.95
2023-05-10T01:09:34.026Z,57.19
2023-05-10T01:12:11.278Z,57.30
2023-05-10T01:15:04.012Z,57.40
2023-05-10T01:17:56.175Z,57.55
2023-05-10T01:20:56.905Z,57.67
2023-05-10T01:24:23.482Z,57.89
2023-05-10T01:27:28.544Z,58.07
2023-05-10T01:30:30.886Z,57.98
2023-05-10T01:33:28.972Z,58.26
2023-05-10T01:36:29.204Z,58.38
2023-05-10T01:39:26.827Z,58.60
2023-05-10T01:42:23.465Z,58.71
2023-05-10T01:45:22.101Z,58.82
2023-05-10T01:48:16.408Z,58.76
2023-05-10T01:51:07.075Z,58.81
2023-05-10T01:54:04.366Z,59.06
2023-05-10T01:56:50.739Z,59.05
2023-05-10T01:59:45.263Z,59.05
2023-05-10T02:02:41.487Z,59.08
2023-05-10T02:05:36.309Z,59.11
2023-05-10T02:08:28.995Z,59.28
2023-05-10T02:11:23.216Z,59.37
2023-05-10T02:14:18.634Z,59.51
2023-05-10T02:17:11.590Z,59.49
2023-05-10T02:20:05.794Z,59.68
2023-05-10T02:22:59.568Z,59.71
2023-05-10T02:25:53.693Z,59.77
2023-05-10T02:28:46.529Z,59.86
2023-05-10T02:31:39.798Z,59.80
2023-05-10T02:34:33.170Z,59.95
2023-05-10T02:37:27.343Z,60.07
2023-05-10T02:40:21.719Z,60.20
2023-05-10T02:43:18.494Z,60.23
2023-05-10T02:46:10.608Z,60.48
2023-05-10T02:49:02.817Z,60.44
2023-05-10T02:52:01.539Z,60.59
2023-05-10T02:55:03.011Z,60.80
2023-05-10T02:57:59.175Z,60.80
2023-05-10T03:00:51.478Z,60.98
2023-05-10T03:03:43.813Z,60.98
2023-05-10T03:06:35.839Z,61.19
2023-05-10T03:09:27.958Z,61.19
2023-05-10T03:12:28.558Z,61.34
2023-05-10T03:15:32.611Z,61.41
2023-05-10T03:18:30.591Z,61.49
2023-05-10T03:21:28.100Z,61.79
2023-05-10T03:24:22.953Z,61.98
2023-05-10T03:27:16.530Z,62.01
2023-05-10T03:30:13.121Z,61.99
2023-05-10T03:33:09.525Z,62.10
2023-05-10T03:36:01.673Z,62.12
2023-05-10T03:38:53.660Z,62.24
2023-05-10T03:41:46.055Z,62.28
2023-05-10T03:44:38.192Z,62.48
2023-05-10T03:47:12.754Z,62.59
2023-05-10T03:50:04.892Z,62.65
2023-05-10T03:52:56.986Z,62.75
2023-05-10T03:55:48.972Z,62.72
2023-05-10T03:58:40.958Z,63.00
2023-05-10T04:01:33.083Z,63.03
2023-05-10T04:04:25.210Z,63.18
2023-05-10T04:07:17.222Z,62.95
2023-05-10T04:10:10.953Z,62.89
2023-05-10T04:13:03.030Z,63.09
2023-05-10T04:15:55.060Z,63.05
2023-05-10T04:18:47.145Z,63.01
2023-05-10T04:21:39.757Z,62.92
2023-05-10T04:24:31.761Z,62.75
2023-05-10T04:27:23.709Z,62.50
2023-05-10T04:30:16.455Z,62.03
2023-05-10T04:33:08.622Z,61.88
2023-05-10T04:36:00.877Z,61.55
2023-05-10T04:38:52.829Z,61.35
2023-05-10T04:41:44.769Z,61.34
2023-05-10T04:44:37.142Z,61.30
2023-05-10T04:47:29.227Z,61.05
2023-05-10T04:50:21.318Z,60.40
2023-05-10T04:53:15.786Z,60.20
2023-05-10T04:56:09.322Z,59.86
2023-05-10T04:59:01.437Z,59.96
2023-05-10T05:01:53.425Z,59.68
2023-05-10T05:04:45.499Z,59.13
2023-05-10T05:07:38.364Z,59.15
2023-05-10T05:10:30.866Z,58.91
2023-05-10T05:13:22.982Z,58.51
2023-05-10T05:16:15.289Z,57.86
2023-05-10T05:19:07.376Z,57.70
2023-05-10T05:21:59.350Z,57.42
2023-05-10T05:24:51.416Z,56.90
2023-05-10T05:27:43.386Z,57.46
2023-05-10T05:30:35.448Z,56.51
2023-05-10T05:33:27.466Z,56.25
2023-05-10T05:36:19.611Z,55.22
2023-05-10T05:39:11.599Z,53.20
2023-05-10T05:42:03.767Z,51.02
2023-05-10T05:44:55.769Z,48.54
2023-05-10T05:47:48.225Z,46.39
2023-05-10T05:50:40.189Z,44.25
2023-05-10T05:53:32.199Z,42.40
2023-05-10T05:56:25.418Z,40.73
2023-05-10T05:59:17.937Z,39.73
2023-05-10T06:02:09.997Z,37.76
2023-05-10T06:05:02.165Z,36.79
2023-05-10T06:07:54.211Z,35.66
2023-05-10T06:10:46.443Z,34.01
2023-05-10T06:13:38.527Z,32.61
2023-05-10T06:16:30.572Z,31.80
2023-05-10T06:19:22.617Z,30.76
2023-05-10T06:22:14.893Z,29.95
2023-05-10T06:25:08.123Z,28.59
2023-05-10T06:28:00.861Z,28.16
2023-05-10T06:30:52.866Z,27.38
2023-05-10T06:33:44.883Z,26.76
2023-05-10T06:36:36.909Z,26.51
2023-05-10T06:39:30.362Z,26.12
2023-05-10T06:42:22.401Z,25.14
2023-05-10T06:45:15.651Z,24.37
2023-05-10T06:48:08.377Z,23.55
2023-05-10T06:51:00.371Z,23.09
2023-05-10T06:53:52.403Z,22.61
2023-05-10T06:56:44.396Z,22.09
2023-05-10T06:59:37.360Z,21.60
2023-05-10T07:02:29.932Z,21.79
2023-05-10T07:05:22.501Z,22.58
2023-05-10T07:08:15.495Z,23.69
2023-05-10T07:11:09.110Z,24.68
2023-05-10T07:14:01.433Z,25.62
2023-05-10T07:16:53.483Z,26.36
2023-05-10T07:19:25.379Z,27.17
2023-05-10T07:22:17.630Z,27.43
2023-05-10T07:25:10.787Z,28.01
2023-05-10T07:28:02.955Z,28.63
2023-05-10T07:30:55.080Z,29.34
2023-05-10T07:33:47.242Z,29.12
2023-05-10T07:36:39.331Z,29.31
2023-05-10T07:39:31.305Z,29.28
2023-05-10T07:42:23.291Z,29.61
2023-05-10T07:45:15.881Z,29.72
2023-05-10T07:48:08.303Z,29.80
2023-05-10T07:51:00.557Z,29.78
2023-05-10T07:53:52.601Z,30.01
2023-05-10T07:56:46.603Z,30.02
2023-05-10T07:59:38.619Z,30.66
2023-05-10T08:02:30.809Z,30.14
2023-05-10T08:05:22.822Z,30.40
2023-05-10T08:08:14.889Z,30.35
2023-05-10T08:11:07.267Z,30.58
2023-05-10T08:13:59.306Z,30.75
2023-05-10T08:16:51.538Z,30.91
2023-05-10T08:19:43.537Z,30.81
2023-05-10T08:22:35.531Z,30.47
2023-05-10T08:25:27.742Z,30.56
2023-05-10T08:28:19.698Z,30.64
2023-05-10T08:31:11.837Z,30.30
2023-05-10T08:34:03.834Z,30.68
2023-05-10T08:36:55.882Z,30.08
2023-05-10T08:39:48.877Z,30.17
2023-05-10T08:42:45.531Z,30.28
2023-05-10T08:45:41.075Z,30.13
2023-05-10T08:48:35.666Z,30.47
2023-05-10T08:51:29.163Z,30.44
2023-05-10T08:54:21.299Z,29.91
2023-05-10T08:57:58.858Z,29.97
2023-05-10T09:00:26.602Z,30.21
2023-05-10T09:03:18.859Z,30.43
2023-05-10T09:06:11.047Z,30.47
2023-05-10T09:09:06.503Z,30.15
2023-05-10T09:11:58.947Z,29.90
2023-05-10T09:14:52.711Z,29.71
2023-05-10T09:17:46.666Z,30.13
2023-05-10T09:20:38.655Z,29.88
2023-05-10T09:30:57.914Z,30.01
2023-05-10T09:33:50.932Z,30.14
2023-05-10T09:36:58.424Z,29.97
2023-05-10T09:39:56.486Z,29.93
2023-05-10T09:42:28.379Z,29.63
2023-05-10T09:45:20.494Z,29.26
2023-05-10T09:48:12.488Z,29.03
2023-05-10T09:51:04.726Z,29.27
2023-05-10T09:54:13.459Z,29.31
2023-05-10T09:57:05.998Z,29.80
2023-05-10T09:59:59.317Z,29.55
2023-05-10T10:02:58.385Z,29.00
2023-05-10T10:05:51.276Z,29.17
2023-05-10T10:08:43.442Z,29.13
2023-05-10T10:11:35.896Z,29.18
2023-05-10T10:14:27.993Z,29.54
2023-05-10T10:17:21.809Z,29.33
2023-05-10T10:20:14.872Z,29.12
2023-05-10T10:23:06.997Z,28.85
2023-05-10T10:25:59.164Z,28.82
2023-05-10T10:28:59.977Z,28.62
2023-05-10T10:32:04.794Z,29.03
2023-05-10T10:34:57.986Z,29.40
2023-05-10T10:37:49.506Z,28.82
2023-05-10T10:40:41.635Z,28.76
2023-05-10T10:43:33.657Z,28.90
2023-05-10T10:46:15.401Z,29.08
2023-05-10T10:49:13.514Z,28.78
2023-05-10T10:52:29.306Z,28.30
2023-05-10T10:55:23.456Z,28.38
2023-05-10T10:58:33.184Z,28.93
2023-05-10T11:01:25.235Z,28.97
2023-05-10T11:04:23.186Z,29.16
2023-05-10T11:07:21.651Z,28.80
2023-05-10T11:10:21.265Z,28.64
2023-05-10T11:13:13.302Z,28.58
2023-05-10T11:16:19.014Z,28.49
2023-05-10T11:19:13.581Z,28.41
2023-05-10T11:22:19.012Z,28.92
2023-05-10T11:25:12.689Z,29.09
2023-05-10T11:28:06.768Z,28.28
2023-05-10T11:30:59.136Z,28.33
2023-05-10T11:33:52.176Z,28.16
2023-05-10T11:36:44.137Z,27.48
2023-05-10T11:39:36.088Z,27.63
2023-05-10T11:42:29.395Z,27.95
2023-05-10T11:45:22.754Z,27.59
2023-05-10T11:48:14.960Z,27.88
2023-05-10T11:51:07.353Z,28.09
2023-05-10T11:54:00.319Z,27.88
2023-05-10T11:56:53.599Z,28.04
2023-05-10T11:59:46.612Z,28.00
2023-05-10T12:02:39.157Z,27.89
2023-05-10T12:05:33.778Z,27.66
2023-05-10T12:08:22.834Z,27.56
2023-05-10T12:11:16.444Z,27.47
2023-05-10T12:14:10.345Z,27.43
2023-05-10T12:17:02.390Z,27.19
2023-05-10T12:19:54.388Z,27.00
2023-05-10T12:22:48.686Z,26.98
2023-05-10T12:25:41.230Z,27.07
2023-05-10T12:28:36.336Z,27.74
2023-05-10T12:31:28.323Z,28.33
2023-05-10T12:34:32.554Z,27.87
2023-05-10T12:37:31.316Z,27.58
2023-05-10T12:40:23.550Z,28.02
2023-05-10T12:43:15.727Z,28.12
2023-05-10T12:46:12.229Z,28.15
2023-05-10T12:49:08.057Z,28.21
2023-05-10T12:51:43.899Z,28.06
2023-05-10T12:54:35.799Z,28.27
2023-05-10T12:57:28.413Z,28.61
2023-05-10T13:03:31.538Z,28.18
2023-05-10T13:06:23.716Z,28.25
2023-05-10T13:09:16.146Z,27.96
2023-05-10T13:12:10.172Z,28.42
2023-05-10T13:15:00.834Z,28.30
2023-05-10T13:17:52.911Z,28.28
2023-05-10T13:20:45.303Z,27.89
2023-05-10T13:23:37.412Z,28.66
2023-05-10T13:26:29.791Z,28.73
2023-05-10T13:29:23.490Z,28.36
2023-05-10T13:32:15.622Z,28.52
2023-05-10T13:35:09.146Z,28.20
2023-05-10T13:38:01.288Z,28.03
2023-05-10T13:40:53.953Z,28.18
2023-05-10T13:43:46.235Z,28.11
2023-05-10T13:46:39.533Z,28.08
2023-05-10T13:49:31.633Z,28.15
2023-05-10T13:52:23.746Z,28.24
2023-05-10T13:55:06.604Z,28.34
2023-05-10T13:57:59.014Z,28.52
2023-05-10T14:00:51.088Z,28.54
2023-05-10T14:03:43.209Z,28.60
2023-05-10T14:06:35.291Z,28.64
2023-05-10T14:09:27.342Z,28.49
2023-05-10T14:12:19.367Z,28.51
2023-05-10T14:15:12.823Z,28.67
2023-05-10T14:18:04.945Z,28.53
2023-05-10T14:20:57.226Z,28.46
2023-05-10T14:23:49.288Z,28.51
2023-05-10T14:26:32.576Z,28.64
2023-05-10T14:29:24.711Z,28.52
2023-05-10T14:32:16.748Z,28.39
2023-05-10T14:35:12.125Z,28.58
2023-05-10T14:38:05.587Z,28.57
2023-05-10T14:40:57.942Z,28.58
2023-05-10T14:43:50.071Z,28.60
2023-05-10T14:46:42.830Z,28.87
2023-05-10T14:49:34.837Z,28.97
2023-05-10T14:52:26.927Z,28.70
2023-05-10T14:55:19.283Z,28.85
2023-05-10T14:58:11.433Z,28.91
2023-05-10T15:01:03.722Z,28.73
2023-05-10T15:03:56.268Z,28.55
2023-05-10T15:06:48.898Z,28.48
2023-05-10T15:09:40.935Z,28.72
2023-05-10T15:12:32.981Z,28.88
2023-05-10T15:15:25.114Z,29.12
2023-05-10T15:18:18.867Z,29.26
2023-05-10T15:21:10.988Z,29.62
2023-05-10T15:24:03.077Z,29.75
2023-05-10T15:26:55.140Z,29.77
2023-05-10T15:29:47.506Z,29.35
2023-05-10T15:32:41.056Z,29.47
2023-05-10T15:35:33.458Z,29.60
2023-05-10T15:38:08.432Z,29.62
2023-05-10T15:41:01.327Z,29.32
2023-05-10T15:43:53.379Z,29.33
2023-05-10T15:46:45.573Z,29.45
2023-05-10T15:49:37.666Z,29.64
2023-05-10T15:52:29.781Z,29.84
2023-05-10T15:55:22.004Z,30.02
2023-05-10T15:58:14.000Z,29.93
2023-05-10T16:01:06.999Z,30.10
2023-05-10T16:03:59.148Z,29.98
2023-05-10T16:06:51.209Z,30.15
2023-05-10T16:09:43.290Z,30.36
2023-05-10T16:12:35.749Z,30.34
2023-05-10T16:15:27.912Z,30.42
2023-05-10T16:18:20.094Z,30.74
2023-05-10T16:21:12.235Z,30.81
2023-05-10T16:24:06.217Z,31.09
2023-05-10T16:26:58.286Z,31.32
2023-05-10T16:29:50.955Z,31.37
2023-05-10T16:32:43.019Z,31.05
2023-05-10T16:35:35.133Z,31.04
2023-05-10T16:38:27.337Z,31.32
2023-05-10T16:41:19.401Z,31.80
2023-05-10T16:44:11.404Z,31.83
2023-05-10T16:47:03.802Z,31.91
2023-05-10T16:49:56.163Z,32.09
2023-05-10T16:52:48.321Z,32.17
2023-05-10T16:55:40.386Z,32.12
2023-05-10T16:58:32.449Z,32.38
2023-05-10T17:01:26.475Z,32.62
2023-05-10T17:04:19.135Z,32.78
2023-05-10T17:07:11.956Z,32.89
2023-05-10T17:10:04.085Z,32.94
2023-05-10T17:12:56.145Z,32.88
2023-05-10T17:15:49.343Z,33.33
2023-05-10T17:18:41.711Z,33.41
2023-05-10T17:21:33.895Z,33.49
2023-05-10T17:24:27.028Z,33.72
2023-05-10T17:27:19.181Z,33.77
2023-05-10T17:30:13.170Z,33.96
2023-05-10T17:33:05.333Z,34.03
2023-05-10T17:35:58.277Z,34.06
2023-05-10T17:38:50.603Z,34.20
2023-05-10T17:41:43.473Z,34.22
2023-05-10T17:44:35.589Z,34.34
2023-05-10T17:47:27.934Z,34.55
2023-05-10T17:50:20.135Z,34.60
2023-05-10T17:53:12.278Z,34.88
2023-05-10T17:56:04.374Z,34.89
2023-05-10T17:58:56.423Z,34.93
2023-05-10T18:01:48.521Z,35.02
2023-05-10T18:04:42.050Z,35.40
2023-05-10T18:07:35.198Z,35.21
2023-05-10T18:10:27.605Z,35.31
2023-05-10T18:13:19.710Z,35.43
2023-05-10T18:16:12.917Z,35.36
2023-05-10T18:19:05.239Z,35.62
2023-05-10T18:21:57.433Z,35.74
2023-05-10T18:24:49.502Z,35.79
2023-05-10T18:27:41.685Z,35.99
2023-05-10T18:30:33.768Z,36.00
2023-05-10T18:33:25.930Z,36.14
2023-05-10T18:36:17.999Z,36.15
2023-05-10T18:39:10.245Z,36.38
2023-05-10T18:42:02.314Z,36.30
2023-05-10T18:44:54.447Z,36.60
2023-05-10T18:47:27.436Z,36.49
2023-05-10T18:50:19.842Z,36.82
2023-05-10T18:53:12.303Z,36.71
2023-05-10T18:56:04.424Z,36.81
2023-05-10T18:58:56.593Z,36.79
2023-05-10T19:01:51.050Z,36.66
2023-05-10T19:04:43.560Z,36.76
2023-05-10T19:07:35.718Z,36.83
2023-05-10T19:10:27.918Z,37.00
2023-05-10T19:13:19.976Z,37.09
2023-05-10T19:16:16.641Z,37.07
2023-05-10T19:19:08.972Z,37.47
2023-05-10T19:21:45.663Z,37.58
2023-05-10T19:24:38.012Z,37.49
2023-05-10T19:27:30.636Z,37.58
2023-05-10T19:30:22.976Z,37.68
2023-05-10T19:33:14.946Z,37.83
2023-05-10T19:36:07.172Z,38.01
2023-05-10T19:38:59.200Z,37.82
2023-05-10T19:41:51.234Z,37.93
2023-05-10T19:44:43.462Z,38.05
2023-05-10T19:47:35.972Z,37.88
2023-05-10T19:50:27.924Z,37.99
2023-05-10T19:53:20.041Z,38.03
2023-05-10T19:56:12.678Z,37.97
2023-05-10T19:59:04.848Z,38.07
2023-05-10T20:01:56.869Z,38.15
2023-05-10T20:04:48.863Z,38.02
2023-05-10T20:07:41.010Z,38.34
2023-05-10T20:10:33.243Z,38.37
2023-05-10T20:13:25.493Z,38.40
2023-05-10T20:16:17.490Z,38.43
2023-05-10T20:19:09.609Z,38.50
2023-05-10T20:22:01.945Z,38.50
2023-05-10T20:24:55.842Z,38.46
2023-05-10T20:27:50.714Z,38.60
2023-05-10T20:30:42.866Z,38.59
2023-05-10T20:33:35.129Z,38.60
2023-05-10T20:36:27.577Z,38.57
2023-05-10T20:39:19.608Z,38.84
2023-05-10T20:42:11.640Z,38.89
2023-05-10T20:45:03.618Z,38.84
2023-05-10T20:47:56.226Z,39.00
2023-05-10T20:50:48.352Z,39.04
2023-05-10T20:53:40.555Z,39.14
2023-05-10T20:56:33.612Z,39.11
2023-05-10T20:59:25.621Z,39.10
2023-05-10T21:02:17.630Z,39.25
2023-05-10T21:05:10.685Z,39.32
2023-05-10T21:08:02.692Z,39.34
2023-05-10T21:10:54.665Z,39.33
2023-05-10T21:13:46.622Z,39.54
2023-05-10T21:16:39.007Z,39.65
2023-05-10T21:19:31.058Z,39.59
2023-05-10T21:22:23.100Z,39.76
2023-05-10T21:25:15.445Z,39.78
2023-05-10T21:28:07.613Z,39.86
2023-05-10T21:30:59.624Z,39.89
2023-05-10T21:33:51.617Z,39.80
2023-05-10T21:36:43.724Z,39.92
2023-05-10T21:39:35.963Z,40.03
2023-05-10T21:42:28.042Z,39.91
2023-05-10T21:45:21.025Z,40.17
2023-05-10T21:48:13.331Z,40.33
2023-05-10T21:51:05.464Z,40.31
2023-05-10T21:53:57.626Z,40.47
2023-05-10T21:56:49.646Z,40.58
2023-05-10T21:59:42.253Z,40.72
2023-05-10T22:02:34.439Z,40.81
2023-05-10T22:05:26.603Z,40.84
2023-05-10T22:08:18.577Z,40.84
2023-05-10T22:11:10.596Z,40.89
2023-05-10T22:14:02.802Z,40.82
2023-05-10T22:16:54.799Z,40.93
2023-05-10T22:19:46.913Z,40.97
2023-05-10T22:22:38.908Z,41.12
2023-05-10T22:25:30.982Z,41.24
2023-05-10T22:28:22.982Z,41.35
2023-05-10T22:31:15.372Z,41.46
2023-05-10T22:34:07.325Z,41.57
2023-05-10T22:36:59.716Z,41.58
2023-05-10T22:39:52.411Z,41.90
2023-05-10T22:42:44.400Z,41.99
2023-05-10T22:45:36.497Z,41.98
2023-05-10T22:48:29.256Z,42.29
2023-05-10T22:51:21.353Z,42.54
2023-05-10T22:54:13.375Z,42.58
2023-05-10T22:57:05.575Z,42.71
2023-05-10T22:59:57.615Z,42.93
2023-05-10T23:02:50.146Z,43.06
2023-05-10T23:05:42.201Z,43.33
2023-05-10T23:08:34.256Z,43.21
2023-05-10T23:11:26.253Z,43.20
2023-05-10T23:14:18.268Z,43.54
2023-05-10T23:17:10.398Z,43.77
2023-05-10T23:20:02.478Z,43.98
2023-05-10T23:22:54.434Z,44.24
2023-05-10T23:25:46.439Z,44.41
2023-05-10T23:28:38.561Z,44.43
2023-05-10T23:31:30.810Z,44.65
2023-05-10T23:34:44.599Z,44.46
2023-05-10T23:37:37.103Z,44.77
2023-05-10T23:40:29.095Z,44.80
2023-05-10T23:43:21.747Z,44.83
2023-05-10T23:46:13.851Z,44.96
2023-05-10T23:49:05.850Z,45.32
2023-05-10T23:51:57.804Z,45.54
2023-05-10T23:54:49.780Z,45.73
2023-05-10T23:57:41.738Z,45.85
